sensor_id;sensor_type;location;lat;lon;timestamp;temperature;humidity
21275;DHT22;36472;52.170;20.884;2023-11-19T00:02:07;25.90;34.60
21275;DHT22;36472;52.170;20.884;2023-11-19T00:04:37;25.90;34.50
21275;DHT22;36472;52.170;20.884;2023-11-19T00:07:06;25.90;34.70
21275;DHT22;36472;52.170;20.884;2023-11-19T00:09:38;25.90;34.50
21275;DHT22;36472;52.170;20.884;2023-11-19T00:12:07;25.90;34.30
21275;DHT22;36472;52.170;20.884;2023-11-19T00:14:37;25.90;34.50
21275;DHT22;36472;52.170;20.884;2023-11-19T00:17:06;25.80;34.50
21275;DHT22;36472;52.170;20.884;2023-11-19T00:19:35;25.80;34.60
21275;DHT22;36472;52.170;20.884;2023-11-19T00:22:04;25.80;34.60
21275;DHT22;36472;52.170;20.884;2023-11-19T00:24:33;25.90;34.70
21275;DHT22;36472;52.170;20.884;2023-11-19T00:27:02;25.90;34.50
21275;DHT22;36472;52.170;20.884;2023-11-19T00:29:32;25.80;34.50
21275;DHT22;36472;52.170;20.884;2023-11-19T00:32:02;25.80;34.30
21275;DHT22;36472;52.170;20.884;2023-11-19T00:34:33;25.80;34.40
21275;DHT22;36472;52.170;20.884;2023-11-19T00:37:02;25.90;34.60
21275;DHT22;36472;52.170;20.884;2023-11-19T00:39:31;25.90;34.70
21275;DHT22;36472;52.170;20.884;2023-11-19T00:42:00;25.90;34.70
21275;DHT22;36472;52.170;20.884;2023-11-19T00:44:29;25.80;34.70
21275;DHT22;36472;52.170;20.884;2023-11-19T00:46:58;25.80;34.50
21275;DHT22;36472;52.170;20.884;2023-11-19T00:49:30;25.80;34.60
21275;DHT22;36472;52.170;20.884;2023-11-19T00:52:00;25.90;34.60
21275;DHT22;36472;52.170;20.884;2023-11-19T00:54:30;25.90;34.80
21275;DHT22;36472;52.170;20.884;2023-11-19T00:56:59;25.80;34.70
21275;DHT22;36472;52.170;20.884;2023-11-19T00:59:29;25.80;34.30
21275;DHT22;36472;52.170;20.884;2023-11-19T01:01:58;25.80;34.60
21275;DHT22;36472;52.170;20.884;2023-11-19T01:04:34;25.80;34.30
21275;DHT22;36472;52.170;20.884;2023-11-19T01:07:04;25.80;34.60
21275;DHT22;36472;52.170;20.884;2023-11-19T01:09:34;25.80;34.60
21275;DHT22;36472;52.170;20.884;2023-11-19T01:12:04;25.80;34.70
21275;DHT22;36472;52.170;20.884;2023-11-19T01:14:34;25.80;34.50
21275;DHT22;36472;52.170;20.884;2023-11-19T01:17:03;25.90;34.80
21275;DHT22;36472;52.170;20.884;2023-11-19T01:19:36;25.80;34.20
21275;DHT22;36472;52.170;20.884;2023-11-19T01:22:05;25.90;34.50
21275;DHT22;36472;52.170;20.884;2023-11-19T01:24:34;25.90;34.40
21275;DHT22;36472;52.170;20.884;2023-11-19T01:27:03;25.80;34.70
21275;DHT22;36472;52.170;20.884;2023-11-19T01:29:33;25.90;34.40
21275;DHT22;36472;52.170;20.884;2023-11-19T01:32:01;25.90;34.50
21275;DHT22;36472;52.170;20.884;2023-11-19T01:34:31;25.90;34.60
21275;DHT22;36472;52.170;20.884;2023-11-19T01:37:01;25.90;34.20
21275;DHT22;36472;52.170;20.884;2023-11-19T01:39:30;25.90;34.60
21275;DHT22;36472;52.170;20.884;2023-11-19T01:41:59;25.90;34.30
21275;DHT22;36472;52.170;20.884;2023-11-19T01:44:28;25.90;34.40
21275;DHT22;36472;52.170;20.884;2023-11-19T01:46:57;25.90;34.70
21275;DHT22;36472;52.170;20.884;2023-11-19T01:49:27;25.90;34.50
21275;DHT22;36472;52.170;20.884;2023-11-19T01:51:57;25.90;34.50
21275;DHT22;36472;52.170;20.884;2023-11-19T01:54:28;26.00;34.50
21275;DHT22;36472;52.170;20.884;2023-11-19T01:56:57;26.00;34.40
21275;DHT22;36472;52.170;20.884;2023-11-19T01:59:25;26.00;34.40
21275;DHT22;36472;52.170;20.884;2023-11-19T02:01:55;26.00;34.40
21275;DHT22;36472;52.170;20.884;2023-11-19T02:04:27;26.00;34.50
21275;DHT22;36472;52.170;20.884;2023-11-19T02:06:58;26.00;34.30
21275;DHT22;36472;52.170;20.884;2023-11-19T02:09:29;26.00;34.40
21275;DHT22;36472;52.170;20.884;2023-11-19T02:11:58;26.00;34.50
21275;DHT22;36472;52.170;20.884;2023-11-19T02:14:27;25.90;34.30
21275;DHT22;36472;52.170;20.884;2023-11-19T02:16:56;25.90;34.40
21275;DHT22;36472;52.170;20.884;2023-11-19T02:19:25;25.90;34.30
21275;DHT22;36472;52.170;20.884;2023-11-19T02:21:54;26.00;34.50
21275;DHT22;36472;52.170;20.884;2023-11-19T02:24:25;26.00;34.50
21275;DHT22;36472;52.170;20.884;2023-11-19T02:27:03;26.00;34.50
21275;DHT22;36472;52.170;20.884;2023-11-19T02:29:40;25.90;34.60
21275;DHT22;36472;52.170;20.884;2023-11-19T02:32:09;25.90;34.40
21275;DHT22;36472;52.170;20.884;2023-11-19T02:34:41;26.00;34.50
21275;DHT22;36472;52.170;20.884;2023-11-19T02:37:10;25.90;34.30
21275;DHT22;36472;52.170;20.884;2023-11-19T02:39:40;25.90;34.30
21275;DHT22;36472;52.170;20.884;2023-11-19T02:42:09;25.80;34.20
21275;DHT22;36472;52.170;20.884;2023-11-19T02:44:43;25.80;34.10
21275;DHT22;36472;52.170;20.884;2023-11-19T02:47:13;25.80;34.30
21275;DHT22;36472;52.170;20.884;2023-11-19T02:49:42;25.80;34.40
21275;DHT22;36472;52.170;20.884;2023-11-19T02:52:11;25.80;34.50
21275;DHT22;36472;52.170;20.884;2023-11-19T02:54:41;25.80;34.50
21275;DHT22;36472;52.170;20.884;2023-11-19T02:57:11;25.70;34.30
21275;DHT22;36472;52.170;20.884;2023-11-19T02:59:50;25.70;34.30
21275;DHT22;36472;52.170;20.884;2023-11-19T03:02:19;25.70;34.60
21275;DHT22;36472;52.170;20.884;2023-11-19T03:04:48;25.70;34.60
21275;DHT22;36472;52.170;20.884;2023-11-19T03:07:17;25.70;34.40
21275;DHT22;36472;52.170;20.884;2023-11-19T03:09:46;25.50;34.20
21275;DHT22;36472;52.170;20.884;2023-11-19T03:12:16;25.50;34.40
21275;DHT22;36472;52.170;20.884;2023-11-19T03:14:46;25.50;34.70
21275;DHT22;36472;52.170;20.884;2023-11-19T03:17:16;25.60;34.80
21275;DHT22;36472;52.170;20.884;2023-11-19T03:19:46;25.60;34.80
21275;DHT22;36472;52.170;20.884;2023-11-19T03:22:15;25.70;34.70
21275;DHT22;36472;52.170;20.884;2023-11-19T03:24:45;25.70;34.70
21275;DHT22;36472;52.170;20.884;2023-11-19T03:27:13;25.60;34.50
21275;DHT22;36472;52.170;20.884;2023-11-19T03:29:44;25.70;34.50
21275;DHT22;36472;52.170;20.884;2023-11-19T03:32:13;25.70;34.50
21275;DHT22;36472;52.170;20.884;2023-11-19T03:34:44;25.70;34.60
21275;DHT22;36472;52.170;20.884;2023-11-19T03:37:12;25.70;34.60
21275;DHT22;36472;52.170;20.884;2023-11-19T03:39:44;25.70;34.70
21275;DHT22;36472;52.170;20.884;2023-11-19T03:42:13;25.70;34.70
21275;DHT22;36472;52.170;20.884;2023-11-19T03:44:42;25.70;34.70
21275;DHT22;36472;52.170;20.884;2023-11-19T03:47:11;25.70;34.60
21275;DHT22;36472;52.170;20.884;2023-11-19T03:49:40;25.80;34.60
21275;DHT22;36472;52.170;20.884;2023-11-19T03:52:10;25.70;34.50
21275;DHT22;36472;52.170;20.884;2023-11-19T03:54:47;25.80;34.70
21275;DHT22;36472;52.170;20.884;2023-11-19T03:57:16;25.80;34.70
21275;DHT22;36472;52.170;20.884;2023-11-19T03:59:46;25.80;34.40
21275;DHT22;36472;52.170;20.884;2023-11-19T04:02:16;25.80;34.60
21275;DHT22;36472;52.170;20.884;2023-11-19T04:04:45;25.80;34.50
21275;DHT22;36472;52.170;20.884;2023-11-19T04:07:15;25.80;34.60
21275;DHT22;36472;52.170;20.884;2023-11-19T04:09:44;25.80;34.50
21275;DHT22;36472;52.170;20.884;2023-11-19T04:12:14;25.80;34.50
21275;DHT22;36472;52.170;20.884;2023-11-19T04:14:43;25.80;34.50
21275;DHT22;36472;52.170;20.884;2023-11-19T04:17:12;25.80;34.40
21275;DHT22;36472;52.170;20.884;2023-11-19T04:19:41;25.80;34.50
21275;DHT22;36472;52.170;20.884;2023-11-19T04:22:10;25.70;34.50
21275;DHT22;36472;52.170;20.884;2023-11-19T04:24:41;25.80;34.80
21275;DHT22;36472;52.170;20.884;2023-11-19T04:27:11;25.70;34.40
21275;DHT22;36472;52.170;20.884;2023-11-19T04:29:40;25.70;34.70
21275;DHT22;36472;52.170;20.884;2023-11-19T04:32:09;25.70;34.50
21275;DHT22;36472;52.170;20.884;2023-11-19T04:34:38;25.70;34.60
21275;DHT22;36472;52.170;20.884;2023-11-19T04:37:07;25.70;34.50
21275;DHT22;36472;52.170;20.884;2023-11-19T04:39:44;25.70;34.70
21275;DHT22;36472;52.170;20.884;2023-11-19T04:42:13;25.70;34.70
21275;DHT22;36472;52.170;20.884;2023-11-19T04:44:45;25.60;34.70
21275;DHT22;36472;52.170;20.884;2023-11-19T04:47:13;25.60;34.80
21275;DHT22;36472;52.170;20.884;2023-11-19T04:49:43;25.50;34.70
21275;DHT22;36472;52.170;20.884;2023-11-19T04:52:12;25.50;34.80
21275;DHT22;36472;52.170;20.884;2023-11-19T04:54:43;25.50;34.70
21275;DHT22;36472;52.170;20.884;2023-11-19T04:57:12;25.60;34.80
21275;DHT22;36472;52.170;20.884;2023-11-19T04:59:41;25.60;34.90
21275;DHT22;36472;52.170;20.884;2023-11-19T05:02:10;25.50;34.80
21275;DHT22;36472;52.170;20.884;2023-11-19T05:04:42;25.50;34.80
21275;DHT22;36472;52.170;20.884;2023-11-19T05:07:12;25.50;34.60
21275;DHT22;36472;52.170;20.884;2023-11-19T05:09:40;25.50;34.60
21275;DHT22;36472;52.170;20.884;2023-11-19T05:12:12;25.30;34.70
21275;DHT22;36472;52.170;20.884;2023-11-19T05:14:41;25.40;34.90
21275;DHT22;36472;52.170;20.884;2023-11-19T05:17:16;25.40;34.90
21275;DHT22;36472;52.170;20.884;2023-11-19T05:19:45;25.40;35.00
21275;DHT22;36472;52.170;20.884;2023-11-19T05:22:17;25.40;34.80
21275;DHT22;36472;52.170;20.884;2023-11-19T05:24:48;25.50;34.90
21275;DHT22;36472;52.170;20.884;2023-11-19T05:27:19;25.60;35.00
21275;DHT22;36472;52.170;20.884;2023-11-19T05:29:47;25.60;34.80
21275;DHT22;36472;52.170;20.884;2023-11-19T05:32:17;25.70;34.80
21275;DHT22;36472;52.170;20.884;2023-11-19T05:34:45;25.70;34.80
21275;DHT22;36472;52.170;20.884;2023-11-19T05:37:17;25.70;34.60
21275;DHT22;36472;52.170;20.884;2023-11-19T05:39:47;25.70;34.80
21275;DHT22;36472;52.170;20.884;2023-11-19T05:42:16;25.70;34.70
21275;DHT22;36472;52.170;20.884;2023-11-19T05:44:46;25.50;34.30
21275;DHT22;36472;52.170;20.884;2023-11-19T05:47:15;25.00;34.70
21275;DHT22;36472;52.170;20.884;2023-11-19T05:49:45;25.30;35.20
21275;DHT22;36472;52.170;20.884;2023-11-19T05:52:14;25.40;35.20
21275;DHT22;36472;52.170;20.884;2023-11-19T05:54:42;25.40;35.10
21275;DHT22;36472;52.170;20.884;2023-11-19T05:57:12;25.50;34.90
21275;DHT22;36472;52.170;20.884;2023-11-19T05:59:41;25.50;34.80
21275;DHT22;36472;52.170;20.884;2023-11-19T06:02:12;25.40;34.70
21275;DHT22;36472;52.170;20.884;2023-11-19T06:04:41;25.50;34.80
21275;DHT22;36472;52.170;20.884;2023-11-19T06:07:11;25.30;34.80
21275;DHT22;36472;52.170;20.884;2023-11-19T06:09:40;25.30;34.80
21275;DHT22;36472;52.170;20.884;2023-11-19T06:12:10;25.40;34.80
21275;DHT22;36472;52.170;20.884;2023-11-19T06:14:40;25.40;34.70
21275;DHT22;36472;52.170;20.884;2023-11-19T06:17:09;24.90;34.50
21275;DHT22;36472;52.170;20.884;2023-11-19T06:19:40;24.90;35.30
21275;DHT22;36472;52.170;20.884;2023-11-19T06:22:09;25.10;35.00
21275;DHT22;36472;52.170;20.884;2023-11-19T06:24:38;25.10;35.00
21275;DHT22;36472;52.170;20.884;2023-11-19T06:27:08;25.30;35.00
21275;DHT22;36472;52.170;20.884;2023-11-19T06:29:37;25.30;34.80
21275;DHT22;36472;52.170;20.884;2023-11-19T06:32:08;25.10;35.00
21275;DHT22;36472;52.170;20.884;2023-11-19T06:34:41;25.30;35.10
21275;DHT22;36472;52.170;20.884;2023-11-19T06:37:10;25.30;34.70
21275;DHT22;36472;52.170;20.884;2023-11-19T06:39:39;25.20;34.60
21275;DHT22;36472;52.170;20.884;2023-11-19T06:42:09;25.30;34.70
21275;DHT22;36472;52.170;20.884;2023-11-19T06:44:38;25.30;34.40
21275;DHT22;36472;52.170;20.884;2023-11-19T06:47:07;24.70;34.00
21275;DHT22;36472;52.170;20.884;2023-11-19T06:49:35;24.80;34.80
21275;DHT22;36472;52.170;20.884;2023-11-19T06:52:06;24.50;34.70
21275;DHT22;36472;52.170;20.884;2023-11-19T06:54:35;24.70;35.00
21275;DHT22;36472;52.170;20.884;2023-11-19T06:57:05;24.80;34.70
21275;DHT22;36472;52.170;20.884;2023-11-19T06:59:34;24.70;34.60
21275;DHT22;36472;52.170;20.884;2023-11-19T07:02:03;24.80;34.70
21275;DHT22;36472;52.170;20.884;2023-11-19T07:04:33;24.90;34.90
21275;DHT22;36472;52.170;20.884;2023-11-19T07:07:02;25.00;34.40
21275;DHT22;36472;52.170;20.884;2023-11-19T07:09:34;24.90;34.50
21275;DHT22;36472;52.170;20.884;2023-11-19T07:12:04;24.80;34.60
21275;DHT22;36472;52.170;20.884;2023-11-19T07:14:33;24.80;34.50
21275;DHT22;36472;52.170;20.884;2023-11-19T07:17:03;25.00;34.60
21275;DHT22;36472;52.170;20.884;2023-11-19T07:19:32;25.10;34.60
21275;DHT22;36472;52.170;20.884;2023-11-19T07:22:03;25.00;34.40
21275;DHT22;36472;52.170;20.884;2023-11-19T07:24:34;25.10;34.60
21275;DHT22;36472;52.170;20.884;2023-11-19T07:27:04;25.10;34.50
21275;DHT22;36472;52.170;20.884;2023-11-19T07:29:34;25.20;34.40
21275;DHT22;36472;52.170;20.884;2023-11-19T07:32:05;25.30;34.50
21275;DHT22;36472;52.170;20.884;2023-11-19T07:34:36;25.30;34.10
21275;DHT22;36472;52.170;20.884;2023-11-19T07:37:05;25.30;34.40
21275;DHT22;36472;52.170;20.884;2023-11-19T07:39:35;25.40;34.40
21275;DHT22;36472;52.170;20.884;2023-11-19T07:42:08;25.40;34.10
21275;DHT22;36472;52.170;20.884;2023-11-19T07:44:38;25.40;34.10
21275;DHT22;36472;52.170;20.884;2023-11-19T07:47:07;25.50;34.40
21275;DHT22;36472;52.170;20.884;2023-11-19T07:49:36;25.50;34.10
21275;DHT22;36472;52.170;20.884;2023-11-19T07:52:06;25.50;33.90
21275;DHT22;36472;52.170;20.884;2023-11-19T07:54:49;25.60;34.30
21275;DHT22;36472;52.170;20.884;2023-11-19T07:57:18;25.60;34.00
21275;DHT22;36472;52.170;20.884;2023-11-19T07:59:48;25.60;34.30
21275;DHT22;36472;52.170;20.884;2023-11-19T08:02:17;25.70;34.30
21275;DHT22;36472;52.170;20.884;2023-11-19T08:04:47;25.60;34.30
21275;DHT22;36472;52.170;20.884;2023-11-19T08:07:19;25.60;34.00
21275;DHT22;36472;52.170;20.884;2023-11-19T08:09:49;25.60;34.00
21275;DHT22;36472;52.170;20.884;2023-11-19T08:12:18;25.40;34.10
21275;DHT22;36472;52.170;20.884;2023-11-19T08:14:47;25.40;34.00
21275;DHT22;36472;52.170;20.884;2023-11-19T08:17:16;25.30;34.00
21275;DHT22;36472;52.170;20.884;2023-11-19T08:19:45;25.40;34.30
21275;DHT22;36472;52.170;20.884;2023-11-19T08:22:14;25.50;34.50
21275;DHT22;36472;52.170;20.884;2023-11-19T08:24:44;25.50;34.60
21275;DHT22;36472;52.170;20.884;2023-11-19T08:27:14;25.50;34.50
21275;DHT22;36472;52.170;20.884;2023-11-19T08:29:43;25.60;34.60
21275;DHT22;36472;52.170;20.884;2023-11-19T08:32:12;25.20;34.10
21275;DHT22;36472;52.170;20.884;2023-11-19T08:34:41;25.40;34.50
21275;DHT22;36472;52.170;20.884;2023-11-19T08:37:10;25.30;34.40
21275;DHT22;36472;52.170;20.884;2023-11-19T08:39:40;25.30;34.70
21275;DHT22;36472;52.170;20.884;2023-11-19T08:42:10;25.40;34.60
21275;DHT22;36472;52.170;20.884;2023-11-19T08:44:40;25.50;34.70
21275;DHT22;36472;52.170;20.884;2023-11-19T08:47:11;25.50;34.70
21275;DHT22;36472;52.170;20.884;2023-11-19T08:49:40;25.60;34.70
21275;DHT22;36472;52.170;20.884;2023-11-19T08:52:09;25.20;34.40
21275;DHT22;36472;52.170;20.884;2023-11-19T08:54:42;25.30;34.50
21275;DHT22;36472;52.170;20.884;2023-11-19T08:57:11;25.40;34.40
21275;DHT22;36472;52.170;20.884;2023-11-19T08:59:41;25.40;34.60
21275;DHT22;36472;52.170;20.884;2023-11-19T09:02:11;25.40;34.50
21275;DHT22;36472;52.170;20.884;2023-11-19T09:04:40;25.30;35.30
21275;DHT22;36472;52.170;20.884;2023-11-19T09:07:09;25.40;34.90
21275;DHT22;36472;52.170;20.884;2023-11-19T09:09:38;25.20;34.70
21275;DHT22;36472;52.170;20.884;2023-11-19T09:12:07;25.30;34.80
21275;DHT22;36472;52.170;20.884;2023-11-19T09:14:36;25.00;34.60
21275;DHT22;36472;52.170;20.884;2023-11-19T09:17:07;25.10;35.00
21275;DHT22;36472;52.170;20.884;2023-11-19T09:19:37;25.10;34.90
21275;DHT22;36472;52.170;20.884;2023-11-19T09:22:06;25.00;35.00
21275;DHT22;36472;52.170;20.884;2023-11-19T09:24:35;25.10;35.10
21275;DHT22;36472;52.170;20.884;2023-11-19T09:27:04;25.20;35.30
21275;DHT22;36472;52.170;20.884;2023-11-19T09:29:34;25.00;35.00
21275;DHT22;36472;52.170;20.884;2023-11-19T09:32:05;25.10;35.10
21275;DHT22;36472;52.170;20.884;2023-11-19T09:34:36;25.10;35.00
21275;DHT22;36472;52.170;20.884;2023-11-19T09:37:05;25.20;35.10
21275;DHT22;36472;52.170;20.884;2023-11-19T09:39:48;25.30;35.10
21275;DHT22;36472;52.170;20.884;2023-11-19T09:42:17;25.40;35.20
21275;DHT22;36472;52.170;20.884;2023-11-19T09:44:47;25.40;35.00
21275;DHT22;36472;52.170;20.884;2023-11-19T09:47:19;25.30;34.60
21275;DHT22;36472;52.170;20.884;2023-11-19T09:49:49;25.30;34.80
21275;DHT22;36472;52.170;20.884;2023-11-19T09:52:19;24.90;34.60
21275;DHT22;36472;52.170;20.884;2023-11-19T09:54:47;25.10;35.10
21275;DHT22;36472;52.170;20.884;2023-11-19T09:57:17;25.00;35.30
21275;DHT22;36472;52.170;20.884;2023-11-19T09:59:46;25.20;35.40
21275;DHT22;36472;52.170;20.884;2023-11-19T10:02:18;25.40;35.20
21275;DHT22;36472;52.170;20.884;2023-11-19T10:04:48;25.50;35.00
21275;DHT22;36472;52.170;20.884;2023-11-19T10:07:19;25.50;34.90
21275;DHT22;36472;52.170;20.884;2023-11-19T10:09:52;25.60;34.90
21275;DHT22;36472;52.170;20.884;2023-11-19T10:12:22;25.60;34.90
21275;DHT22;36472;52.170;20.884;2023-11-19T10:14:51;25.40;35.00
21275;DHT22;36472;52.170;20.884;2023-11-19T10:17:21;25.50;34.70
21275;DHT22;36472;52.170;20.884;2023-11-19T10:19:51;25.60;35.00
21275;DHT22;36472;52.170;20.884;2023-11-19T10:22:20;25.70;35.20
21275;DHT22;36472;52.170;20.884;2023-11-19T10:24:51;25.40;34.70
21275;DHT22;36472;52.170;20.884;2023-11-19T10:27:24;25.10;35.00
21275;DHT22;36472;52.170;20.884;2023-11-19T10:29:53;25.40;35.00
21275;DHT22;36472;52.170;20.884;2023-11-19T10:32:24;25.50;34.90
21275;DHT22;36472;52.170;20.884;2023-11-19T10:35:04;25.40;34.80
21275;DHT22;36472;52.170;20.884;2023-11-19T10:37:35;25.40;35.20
21275;DHT22;36472;52.170;20.884;2023-11-19T10:40:06;25.50;35.00
21275;DHT22;36472;52.170;20.884;2023-11-19T10:42:38;25.50;34.90
21275;DHT22;36472;52.170;20.884;2023-11-19T10:45:22;25.70;35.10
21275;DHT22;36472;52.170;20.884;2023-11-19T10:47:54;25.70;35.00
21275;DHT22;36472;52.170;20.884;2023-11-19T10:50:25;25.70;35.00
21275;DHT22;36472;52.170;20.884;2023-11-19T10:52:57;25.80;34.90
21275;DHT22;36472;52.170;20.884;2023-11-19T10:55:28;25.80;34.80
21275;DHT22;36472;52.170;20.884;2023-11-19T10:58:00;25.60;34.80
21275;DHT22;36472;52.170;20.884;2023-11-19T11:00:34;25.60;34.90
21275;DHT22;36472;52.170;20.884;2023-11-19T11:03:14;25.60;34.90
21275;DHT22;36472;52.170;20.884;2023-11-19T11:05:47;25.70;34.90
21275;DHT22;36472;52.170;20.884;2023-11-19T11:08:17;25.70;35.60
21275;DHT22;36472;52.170;20.884;2023-11-19T11:10:52;25.70;35.00
21275;DHT22;36472;52.170;20.884;2023-11-19T11:13:25;25.40;34.70
21275;DHT22;36472;52.170;20.884;2023-11-19T11:15:57;25.50;35.10
21275;DHT22;36472;52.170;20.884;2023-11-19T11:18:29;25.60;35.30
21275;DHT22;36472;52.170;20.884;2023-11-19T11:21:01;25.70;35.20
21275;DHT22;36472;52.170;20.884;2023-11-19T11:24:16;25.70;35.10
21275;DHT22;36472;52.170;20.884;2023-11-19T11:27:25;25.70;35.10
21275;DHT22;36472;52.170;20.884;2023-11-19T11:30:13;25.50;34.90
21275;DHT22;36472;52.170;20.884;2023-11-19T11:33:06;25.40;34.90
21275;DHT22;36472;52.170;20.884;2023-11-19T11:35:58;25.50;35.10
21275;DHT22;36472;52.170;20.884;2023-11-19T11:38:37;25.40;34.90
21275;DHT22;36472;52.170;20.884;2023-11-19T11:41:16;25.40;35.30
21275;DHT22;36472;52.170;20.884;2023-11-19T11:43:48;25.40;35.10
21275;DHT22;36472;52.170;20.884;2023-11-19T11:46:55;25.50;35.20
21275;DHT22;36472;52.170;20.884;2023-11-19T11:49:26;25.60;35.20
21275;DHT22;36472;52.170;20.884;2023-11-19T11:52:00;25.50;35.00
21275;DHT22;36472;52.170;20.884;2023-11-19T11:54:31;25.70;35.30
21275;DHT22;36472;52.170;20.884;2023-11-19T11:57:09;25.60;35.20
21275;DHT22;36472;52.170;20.884;2023-11-19T11:59:48;25.60;35.00
21275;DHT22;36472;52.170;20.884;2023-11-19T12:02:20;25.70;35.20
21275;DHT22;36472;52.170;20.884;2023-11-19T12:04:51;25.70;35.30
21275;DHT22;36472;52.170;20.884;2023-11-19T12:07:24;25.70;35.00
21275;DHT22;36472;52.170;20.884;2023-11-19T12:09:56;25.70;35.00
21275;DHT22;36472;52.170;20.884;2023-11-19T12:12:36;25.50;35.00
21275;DHT22;36472;52.170;20.884;2023-11-19T12:15:08;25.60;35.20
21275;DHT22;36472;52.170;20.884;2023-11-19T12:17:51;25.70;35.20
21275;DHT22;36472;52.170;20.884;2023-11-19T12:20:21;25.60;35.00
21275;DHT22;36472;52.170;20.884;2023-11-19T12:22:55;25.60;35.00
21275;DHT22;36472;52.170;20.884;2023-11-19T12:25:24;25.60;35.10
21275;DHT22;36472;52.170;20.884;2023-11-19T12:27:54;25.50;34.90
21275;DHT22;36472;52.170;20.884;2023-11-19T12:30:24;25.50;35.20
21275;DHT22;36472;52.170;20.884;2023-11-19T12:32:55;25.60;35.50
21275;DHT22;36472;52.170;20.884;2023-11-19T12:35:24;25.60;35.20
21275;DHT22;36472;52.170;20.884;2023-11-19T12:37:55;25.70;35.30
21275;DHT22;36472;52.170;20.884;2023-11-19T12:40:25;25.70;35.30
21275;DHT22;36472;52.170;20.884;2023-11-19T12:42:56;25.70;35.20
21275;DHT22;36472;52.170;20.884;2023-11-19T12:45:34;25.70;35.10
21275;DHT22;36472;52.170;20.884;2023-11-19T12:48:08;25.80;35.30
21275;DHT22;36472;52.170;20.884;2023-11-19T12:50:51;25.40;35.10
21275;DHT22;36472;52.170;20.884;2023-11-19T12:53:23;25.50;35.20
21275;DHT22;36472;52.170;20.884;2023-11-19T12:55:53;25.60;35.30
21275;DHT22;36472;52.170;20.884;2023-11-19T12:58:29;25.60;35.10
21275;DHT22;36472;52.170;20.884;2023-11-19T13:01:00;25.60;35.30
21275;DHT22;36472;52.170;20.884;2023-11-19T13:03:31;25.70;35.20
21275;DHT22;36472;52.170;20.884;2023-11-19T13:06:03;25.50;34.70
21275;DHT22;36472;52.170;20.884;2023-11-19T13:08:37;25.60;35.20
21275;DHT22;36472;52.170;20.884;2023-11-19T13:11:08;25.70;35.50
21275;DHT22;36472;52.170;20.884;2023-11-19T13:13:56;25.70;35.20
21275;DHT22;36472;52.170;20.884;2023-11-19T13:16:27;25.60;35.20
21275;DHT22;36472;52.170;20.884;2023-11-19T13:18:57;25.60;35.10
21275;DHT22;36472;52.170;20.884;2023-11-19T13:21:28;25.50;35.10
21275;DHT22;36472;52.170;20.884;2023-11-19T13:23:59;25.50;35.40
21275;DHT22;36472;52.170;20.884;2023-11-19T13:26:28;25.50;35.40
21275;DHT22;36472;52.170;20.884;2023-11-19T13:28:57;25.60;36.30
21275;DHT22;36472;52.170;20.884;2023-11-19T13:31:26;25.70;35.50
21275;DHT22;36472;52.170;20.884;2023-11-19T13:33:56;25.70;35.50
21275;DHT22;36472;52.170;20.884;2023-11-19T13:36:25;25.80;35.50
21275;DHT22;36472;52.170;20.884;2023-11-19T13:38:55;25.70;35.50
21275;DHT22;36472;52.170;20.884;2023-11-19T13:41:28;25.70;35.40
21275;DHT22;36472;52.170;20.884;2023-11-19T13:43:58;25.50;35.30
21275;DHT22;36472;52.170;20.884;2023-11-19T13:46:26;25.60;35.60
21275;DHT22;36472;52.170;20.884;2023-11-19T13:48:56;25.50;35.50
21275;DHT22;36472;52.170;20.884;2023-11-19T13:51:24;25.60;35.70
21275;DHT22;36472;52.170;20.884;2023-11-19T13:53:54;25.60;35.70
21275;DHT22;36472;52.170;20.884;2023-11-19T13:56:22;25.40;35.60
21275;DHT22;36472;52.170;20.884;2023-11-19T13:58:53;25.50;35.60
21275;DHT22;36472;52.170;20.884;2023-11-19T14:01:22;25.50;35.50
21275;DHT22;36472;52.170;20.884;2023-11-19T14:03:53;25.30;35.60
21275;DHT22;36472;52.170;20.884;2023-11-19T14:06:22;25.40;35.90
21275;DHT22;36472;52.170;20.884;2023-11-19T14:08:51;25.50;35.80
21275;DHT22;36472;52.170;20.884;2023-11-19T14:11:21;25.30;35.90
21275;DHT22;36472;52.170;20.884;2023-11-19T14:13:50;25.20;35.90
21275;DHT22;36472;52.170;20.884;2023-11-19T14:16:21;25.20;36.00
21275;DHT22;36472;52.170;20.884;2023-11-19T14:18:50;25.20;36.20
21275;DHT22;36472;52.170;20.884;2023-11-19T14:21:19;25.30;36.10
21275;DHT22;36472;52.170;20.884;2023-11-19T14:23:48;25.30;35.90
21275;DHT22;36472;52.170;20.884;2023-11-19T14:26:17;25.40;36.00
21275;DHT22;36472;52.170;20.884;2023-11-19T14:28:46;25.30;35.70
21275;DHT22;36472;52.170;20.884;2023-11-19T14:31:17;25.40;36.00
21275;DHT22;36472;52.170;20.884;2023-11-19T14:33:48;25.40;35.90
21275;DHT22;36472;52.170;20.884;2023-11-19T14:36:17;25.20;35.90
21275;DHT22;36472;52.170;20.884;2023-11-19T14:38:46;25.40;36.10
21275;DHT22;36472;52.170;20.884;2023-11-19T14:41:15;25.40;35.90
21275;DHT22;36472;52.170;20.884;2023-11-19T14:43:45;25.30;35.90
21275;DHT22;36472;52.170;20.884;2023-11-19T14:46:14;25.40;36.00
21275;DHT22;36472;52.170;20.884;2023-11-19T14:48:43;25.30;36.60
21275;DHT22;36472;52.170;20.884;2023-11-19T14:51:14;25.10;36.00
21275;DHT22;36472;52.170;20.884;2023-11-19T14:53:43;25.10;36.10
21275;DHT22;36472;52.170;20.884;2023-11-19T14:56:12;25.20;36.20
21275;DHT22;36472;52.170;20.884;2023-11-19T14:58:41;25.20;36.20
21275;DHT22;36472;52.170;20.884;2023-11-19T15:01:12;25.20;36.10
21275;DHT22;36472;52.170;20.884;2023-11-19T15:03:44;25.30;36.10
21275;DHT22;36472;52.170;20.884;2023-11-19T15:06:17;25.30;36.00
21275;DHT22;36472;52.170;20.884;2023-11-19T15:08:46;25.10;36.10
21275;DHT22;36472;52.170;20.884;2023-11-19T15:11:15;25.10;36.30
21275;DHT22;36472;52.170;20.884;2023-11-19T15:13:44;25.20;36.30
21275;DHT22;36472;52.170;20.884;2023-11-19T15:16:13;25.20;36.20
21275;DHT22;36472;52.170;20.884;2023-11-19T15:18:42;25.20;36.20
21275;DHT22;36472;52.170;20.884;2023-11-19T15:21:11;25.30;36.20
21275;DHT22;36472;52.170;20.884;2023-11-19T15:23:42;25.20;36.20
21275;DHT22;36472;52.170;20.884;2023-11-19T15:26:11;25.20;36.20
21275;DHT22;36472;52.170;20.884;2023-11-19T15:28:40;25.30;36.20
21275;DHT22;36472;52.170;20.884;2023-11-19T15:31:09;25.30;36.20
21275;DHT22;36472;52.170;20.884;2023-11-19T15:33:38;25.40;36.20
21275;DHT22;36472;52.170;20.884;2023-11-19T15:36:08;25.40;36.20
21275;DHT22;36472;52.170;20.884;2023-11-19T15:38:38;25.40;36.00